sensor_id;sensor_type;location;lat;lon;timestamp;pressure;altitude;pressure_sealevel;temperature;humidity
11038;BME280;5572;49.540;11.932;2024-01-11T07:55:14;98776.81;;;-5.70;100.00
11038;BME280;5572;49.540;11.932;2024-01-11T10:05:21;98491.13;;;0.19;100.00
11038;BME280;5572;49.540;11.932;2024-01-11T10:07:50;98559.69;;;-0.83;100.00
11038;BME280;5572;49.540;11.932;2024-01-11T10:10:18;98569.63;;;-0.69;100.00
11038;BME280;5572;49.540;11.932;2024-01-11T10:16:20;98615.78;;;-0.78;100.00
11038;BME280;5572;49.540;11.932;2024-01-11T10:19:29;98583.38;;;-0.19;100.00
11038;BME280;5572;49.540;11.932;2024-01-11T10:22:05;98600.03;;;-0.33;100.00
11038;BME280;5572;49.540;11.932;2024-01-11T10:25:13;98596.34;;;-0.16;100.00
11038;BME280;5572;49.540;11.932;2024-01-11T10:28:00;98608.34;;;-0.28;100.00
11038;BME280;5572;49.540;11.932;2024-01-11T10:30:35;98645.78;;;-0.07;100.00
11038;BME280;5572;49.540;11.932;2024-01-11T10:33:13;98646.81;;;-0.24;100.00
11038;BME280;5572;49.540;11.932;2024-01-11T10:35:49;98635.34;;;-0.17;100.00
11038;BME280;5572;49.540;11.932;2024-01-11T10:38:36;98618.66;;;-0.41;100.00
11038;BME280;5572;49.540;11.932;2024-01-11T10:41:06;98612.56;;;-0.11;100.00
11038;BME280;5572;49.540;11.932;2024-01-11T10:43:37;98617.81;;;0.04;100.00
11038;BME280;5572;49.540;11.932;2024-01-11T11:32:39;98567.63;;;1.28;100.00
11038;BME280;5572;49.540;11.932;2024-01-11T11:45:26;98567.94;;;0.96;100.00
11038;BME280;5572;49.540;11.932;2024-01-11T11:51:07;98572.78;;;0.92;100.00
11038;BME280;5572;49.540;11.932;2024-01-11T11:53:38;98571.66;;;1.09;100.00
11038;BME280;5572;49.540;11.932;2024-01-11T12:41:25;98455.94;;;2.87;100.00
11038;BME280;5572;49.540;11.932;2024-01-11T12:43:54;98442.16;;;2.83;100.00
11038;BME280;5572;49.540;11.932;2024-01-11T12:49:14;98423.41;;;3.04;100.00
11038;BME280;5572;49.540;11.932;2024-01-11T12:51:42;98414.25;;;3.20;100.00
11038;BME280;5572;49.540;11.932;2024-01-11T12:54:12;98405.44;;;3.26;100.00
11038;BME280;5572;49.540;11.932;2024-01-11T12:56:43;98396.16;;;3.15;100.00
11038;BME280;5572;49.540;11.932;2024-01-11T12:59:15;98409.53;;;3.22;100.00
11038;BME280;5572;49.540;11.932;2024-01-11T13:01:52;98419.22;;;3.23;100.00
11038;BME280;5572;49.540;11.932;2024-01-11T13:04:20;98426.06;;;3.44;100.00
11038;BME280;5572;49.540;11.932;2024-01-11T13:06:48;98407.38;;;3.38;100.00
11038;BME280;5572;49.540;11.932;2024-01-11T13:09:29;98402.16;;;3.30;100.00
11038;BME280;5572;49.540;11.932;2024-01-11T13:12:00;98415.72;;;3.29;100.00
11038;BME280;5572;49.540;11.932;2024-01-11T13:14:29;98407.34;;;2.98;100.00
11038;BME280;5572;49.540;11.932;2024-01-11T13:16:57;98435.00;;;2.84;100.00
11038;BME280;5572;49.540;11.932;2024-01-11T13:19:26;98443.50;;;2.94;100.00
11038;BME280;5572;49.540;11.932;2024-01-11T13:21:53;98435.50;;;3.34;100.00
11038;BME280;5572;49.540;11.932;2024-01-11T17:55:12;98628.38;;;-1.68;100.00
11038;BME280;5572;49.540;11.932;2024-01-11T17:57:44;98627.97;;;-1.96;100.00
11038;BME280;5572;49.540;11.932;2024-01-11T18:00:17;98633.78;;;-1.77;100.00
11038;BME280;5572;49.540;11.932;2024-01-11T18:02:49;98620.22;;;-1.82;100.00
11038;BME280;5572;49.540;11.932;2024-01-11T19:49:12;98670.13;;;-2.95;100.00
11038;BME280;5572;49.540;11.932;2024-01-11T19:51:42;98673.31;;;-3.09;100.00
11038;BME280;5572;49.540;11.932;2024-01-11T19:54:10;98667.22;;;-3.27;100.00
11038;BME280;5572;49.540;11.932;2024-01-11T19:56:39;98675.91;;;-3.51;100.00
11038;BME280;5572;49.540;11.932;2024-01-11T19:59:07;98678.53;;;-3.34;100.00
11038;BME280;5572;49.540;11.932;2024-01-11T20:01:37;98684.84;;;-3.79;100.00
11038;BME280;5572;49.540;11.932;2024-01-11T20:07:17;98683.88;;;-3.43;100.00
11038;BME280;5572;49.540;11.932;2024-01-11T20:10:29;98692.22;;;-3.39;100.00
11038;BME280;5572;49.540;11.932;2024-01-11T20:13:50;98686.81;;;-3.81;100.00
11038;BME280;5572;49.540;11.932;2024-01-11T20:17:21;98684.03;;;-3.80;100.00
